Time;durP1;ratioP1;P1;durP2;ratioP2;P2;SDS_P1;SDS_P2;PMS_P1;PMS_P2;Temp;Humidity;BMP_temperature;BMP_pressure;BME280_temperature;BME280_humidity;BME280_pressure;Samples;Min_cycle;Max_cycle;Signal;HPM_P1;HPM_P2
2023/04/26 00:05:55;;;;;;;0.20;0.20;;;;;;;4.89;60.93;100963.78;15559995;28;20125;-55
2023/04/26 00:13:29;;;;;;;0.63;0.63;;;;;;;4.63;61.76;100973.78;15559950;28;20451;-52
2023/04/26 00:21:03;;;;;;;1.48;0.20;;;;;;;4.34;62.84;100967.13;15559843;28;20111;-50
2023/04/26 00:28:38;;;;;;;0.20;0.20;;;;;;;4.78;61.44;100967.63;15572334;28;20137;-52
2023/04/26 00:36:12;;;;;;;6.22;0.63;;;;;;;4.30;63.15;100973.75;15541048;28;20300;-53
2023/04/26 00:43:47;;;;;;;8.15;0.52;;;;;;;4.23;63.67;100965.59;15572715;28;20037;-52
2023/04/26 00:51:20;;;;;;;0.10;0.10;;;;;;;4.69;62.57;100986.41;15546509;28;20073;-53
2023/04/26 00:58:55;;;;;;;0.68;0.30;;;;;;;4.20;64.17;100978.38;15538768;28;20125;-53
2023/04/26 01:06:33;;;;;;;0.00;0.00;;;;;;;4.61;62.80;100982.72;15539480;28;20052;-53
2023/04/26 01:14:07;;;;;;;0.35;0.10;;;;;;;4.06;64.44;100991.28;15553517;28;20103;-52
2023/04/26 01:21:41;;;;;;;2.17;1.45;;;;;;;4.07;64.23;100990.28;15552750;28;20447;-51
2023/04/26 01:29:16;;;;;;;0.10;0.10;;;;;;;4.32;63.63;100998.31;15536837;28;20041;-54
2023/04/26 01:36:51;;;;;;;0.80;0.80;;;;;;;3.72;65.87;101003.75;15568443;28;20136;-52
2023/04/26 01:44:25;;;;;;;7.43;0.45;;;;;;;3.92;65.45;101005.19;15537447;28;20042;-54
2023/04/26 01:51:59;;;;;;;1.02;0.20;;;;;;;3.87;64.90;101007.50;15553398;28;20050;-52
2023/04/26 01:59:35;;;;;;;0.35;0.35;;;;;;;3.61;65.96;101014.66;15553674;28;20050;-52
2023/04/26 02:07:08;;;;;;;0.90;0.68;;;;;;;3.85;65.39;101006.81;15536553;28;20108;-48
2023/04/26 02:14:43;;;;;;;5.47;0.63;;;;;;;3.42;67.08;101013.06;15552694;28;20042;-51
2023/04/26 02:22:17;;;;;;;1.13;0.63;;;;;;;3.45;67.74;101010.09;15518697;28;20053;-50
2023/04/26 02:29:51;;;;;;;0.15;0.15;;;;;;;3.60;66.70;101010.34;15552227;28;20530;-51
2023/04/26 02:37:25;;;;;;;0.00;0.00;;;;;;;3.50;66.89;101005.16;15534323;28;20104;-53
2023/04/26 02:45:01;;;;;;;0.28;0.28;;;;;;;3.24;68.52;101006.00;15566647;28;20042;-49
2023/04/26 02:52:34;;;;;;;0.60;0.60;;;;;;;2.96;69.07;100989.38;15553994;28;20435;-50
2023/04/26 03:00:27;;;;;;;0.35;0.35;;;;;;;3.55;66.94;101011.66;15556800;28;20058;-53
2023/04/26 03:08:00;;;;;;;5.40;0.32;;;;;;;3.06;69.45;101014.00;15552670;28;20062;-54
2023/04/26 03:15:35;;;;;;;0.33;0.33;;;;;;;3.33;68.35;101010.38;15571020;28;20503;-50
2023/04/26 03:23:08;;;;;;;0.30;0.30;;;;;;;3.36;68.15;101011.03;15570012;28;20296;-51
2023/04/26 03:30:42;;;;;;;0.00;0.00;;;;;;;3.25;67.82;100999.69;15568355;28;20069;-54
2023/04/26 03:38:16;;;;;;;0.00;0.00;;;;;;;3.28;68.72;100987.94;15552752;28;20307;-52
2023/04/26 03:45:51;;;;;;;0.40;0.40;;;;;;;2.77;69.78;101000.19;15552182;28;20077;-51
2023/04/26 03:53:24;;;;;;;0.32;0.32;;;;;;;3.15;68.94;100998.97;15535221;28;20037;-52
2023/04/26 04:00:58;;;;;;;0.53;0.43;;;;;;;2.99;69.27;101012.13;15578565;28;20045;-51
2023/04/26 04:08:31;;;;;;;4.68;0.93;;;;;;;3.33;68.36;101013.03;15525728;28;20049;-51
2023/04/26 04:16:08;;;;;;;4.75;0.57;;;;;;;2.94;69.00;101025.03;15558155;28;20042;-51
2023/04/26 04:23:43;;;;;;;0.10;0.10;;;;;;;3.12;68.92;101023.13;15541375;28;20046;-52
2023/04/26 04:31:19;;;;;;;2.08;0.32;;;;;;;3.21;68.90;101032.81;15541305;28;20045;-50
2023/04/26 04:38:53;;;;;;;0.70;0.30;;;;;;;3.18;69.49;101034.97;15557976;28;20053;-52
2023/04/26 04:46:30;;;;;;;1.05;0.52;;;;;;;3.42;68.26;101034.31;15557898;28;20029;-52
2023/04/26 04:54:10;;;;;;;1.27;0.32;;;;;;;3.20;69.11;101048.91;15556624;28;20133;-51
2023/04/26 05:01:46;;;;;;;0.98;0.60;;;;;;;3.65;67.63;101050.53;15540774;28;20061;-51
2023/04/26 05:09:21;;;;;;;25.40;1.58;;;;;;;3.93;67.03;101059.13;15539936;28;20041;-52
2023/04/26 05:16:56;;;;;;;;;;;;;;;3.68;67.69;101063.47;15539729;28;20446;-49
2023/04/26 05:24:31;;;;;;;0.20;0.20;;;;;;;4.52;64.79;101063.50;15554992;28;20528;-59
2023/04/26 05:32:07;;;;;;;0.20;0.20;;;;;;;4.63;64.93;101069.50;15537958;28;20046;-52
2023/04/26 05:39:51;;;;;;;3.17;0.60;;;;;;;5.07;63.54;101068.19;15537975;28;20034;-51
2023/04/26 05:47:26;;;;;;;0.30;0.30;;;;;;;5.53;62.50;101088.97;15569865;28;20049;-50
2023/04/26 05:55:02;;;;;;;1.35;0.90;;;;;;;6.18;60.21;101090.66;15553283;28;20038;-52
2023/04/26 06:02:36;;;;;;;1.65;0.43;;;;;;;7.57;56.29;101098.56;15535976;28;20053;-53
2023/04/26 06:10:11;;;;;;;3.15;0.77;;;;;;;8.33;54.28;101102.69;15536709;28;20514;-52
2023/04/26 06:17:47;;;;;;;0.20;0.20;;;;;;;8.46;52.47;101103.94;15551044;28;20157;-49
2023/04/26 06:25:20;;;;;;;3.40;0.95;;;;;;;8.57;52.50;101106.09;15558339;28;20040;-51
2023/04/26 06:32:54;;;;;;;2.63;0.63;;;;;;;9.00;52.15;101107.00;15532868;28;20049;-52
2023/04/26 06:40:28;;;;;;;0.30;0.30;;;;;;;7.67;55.33;101105.28;15532745;28;20030;-53
2023/04/26 06:48:04;;;;;;;3.20;0.65;;;;;;;7.48;55.55;101110.31;15548414;28;20125;-54
2023/04/26 06:55:37;;;;;;;0.98;0.55;;;;;;;8.20;53.92;101105.19;15533470;28;20077;-49
2023/04/26 07:03:11;;;;;;;0.17;0.17;;;;;;;8.75;53.42;101116.41;15545647;28;20049;-51
2023/04/26 07:10:45;;;;;;;0.38;0.25;;;;;;;10.83;46.26;101117.47;15548615;28;20045;-49
2023/04/26 07:18:20;;;;;;;0.08;0.08;;;;;;;10.35;48.28;101127.38;15562761;28;20193;-51
2023/04/26 07:25:53;;;;;;;1.23;0.73;;;;;;;9.68;49.36;101135.00;15527689;28;20042;-53
2023/04/26 07:33:27;;;;;;;1.03;0.63;;;;;;;10.14;48.21;101133.66;15516574;28;20049;-50
2023/04/26 07:41:01;;;;;;;0.32;0.17;;;;;;;11.15;46.14;101129.31;15559840;28;20040;-52
2023/04/26 07:48:37;;;;;;;13.98;0.60;;;;;;;9.94;49.81;101144.28;15541856;28;20046;-52
2023/04/26 07:56:10;;;;;;;4.18;0.15;;;;;;;8.79;50.13;101137.25;15559297;28;20120;-51
2023/04/26 08:03:44;;;;;;;0.10;0.10;;;;;;;9.08;51.33;101148.88;15559878;28;20069;-52
2023/04/26 08:11:18;;;;;;;1.17;0.40;;;;;;;8.37;51.77;101152.16;15560290;28;20832;-52
2023/04/26 08:18:52;;;;;;;3.53;0.13;;;;;;;9.28;50.13;101155.28;15541360;28;20056;-53
2023/04/26 08:26:25;;;;;;;0.20;0.20;;;;;;;9.94;48.41;101150.47;15555718;28;20038;-53
2023/04/26 08:34:00;;;;;;;2.08;0.60;;;;;;;8.75;50.92;101151.19;15558082;28;20046;-52
2023/04/26 08:41:36;;;;;;;0.25;0.10;;;;;;;9.29;50.31;101161.47;15556810;28;20076;-52
2023/04/26 08:49:19;;;;;;;2.05;0.82;;;;;;;9.18;49.37;101136.00;15554196;28;20046;-53
2023/04/26 08:56:54;;;;;;;3.47;0.35;;;;;;;10.63;46.09;101157.69;15554562;28;20065;-52
2023/04/26 09:04:29;;;;;;;0.28;0.03;;;;;;;11.28;43.13;101155.34;15535228;28;20133;-51
2023/04/26 09:12:02;;;;;;;1.23;0.30;;;;;;;9.79;45.44;101157.78;15556819;28;20057;-55
2023/04/26 09:19:41;;;;;;;0.88;0.30;;;;;;;9.67;48.55;101164.69;15553924;28;20560;-53
2023/04/26 09:27:15;;;;;;;0.32;0.20;;;;;;;11.61;44.50;101154.56;15553134;28;20422;-51
2023/04/26 09:34:49;;;;;;;5.68;0.82;;;;;;;10.16;45.73;101151.19;15553029;28;20042;-52
2023/04/26 09:42:22;;;;;;;2.67;0.22;;;;;;;10.25;46.15;101151.06;15554015;28;20121;-54
2023/04/26 09:49:57;;;;;;;0.82;0.35;;;;;;;10.80;41.69;101143.88;15551893;28;20057;-53
2023/04/26 09:57:30;;;;;;;0.40;0.20;;;;;;;12.25;43.79;101138.56;15534300;28;20100;-53
2023/04/26 10:05:07;;;;;;;0.20;0.20;;;;;;;11.86;39.91;101141.34;15471318;23;20062;-71
2023/04/26 10:12:42;;;;;;;0.10;0.10;;;;;;;11.71;38.28;101139.69;15414253;28;20051;-70
2023/04/26 10:20:20;;;;;;;1.52;0.40;;;;;;;10.55;40.08;101149.78;15405539;28;20545;-72
2023/04/26 10:27:53;;;;;;;0.32;0.20;;;;;;;10.34;41.44;101144.53;15378828;28;20051;-71
2023/04/26 10:35:29;;;;;;;0.25;0.22;;;;;;;10.41;41.60;101140.03;15414425;28;20142;-72
2023/04/26 10:43:31;;;;;;;0.20;0.20;;;;;;;12.16;41.25;101136.31;15378457;28;20054;-72
2023/04/26 10:51:12;;;;;;;0.40;0.30;;;;;;;12.21;36.94;101123.88;15393584;28;20105;-70
2023/04/26 10:58:46;;;;;;;4.43;0.43;;;;;;;10.17;39.49;101126.06;15396906;28;20055;-71
2023/04/26 11:06:23;;;;;;;0.25;0.22;;;;;;;9.68;41.55;101136.84;15374379;28;20043;-70
2023/04/26 11:13:57;;;;;;;0.52;0.50;;;;;;;9.37;43.41;101155.94;15416955;28;20101;-70
2023/04/26 11:21:31;;;;;;;1.20;0.55;;;;;;;9.77;41.05;101150.94;15411809;28;20097;-73
2023/04/26 11:29:08;;;;;;;9.05;0.63;;;;;;;9.66;42.70;101158.50;15419940;28;20467;-70
2023/04/26 11:36:45;;;;;;;5.07;0.45;;;;;;;8.79;46.89;101179.25;15425612;28;20324;-71
2023/04/26 11:44:19;;;;;;;0.90;0.70;;;;;;;8.92;46.98;101153.47;15421065;28;20047;-71
2023/04/26 11:51:54;;;;;;;0.90;0.50;;;;;;;9.64;45.08;101167.75;15410684;28;20042;-72
2023/04/26 11:59:29;;;;;;;1.27;0.40;;;;;;;9.40;44.17;101161.75;15392178;28;20512;-72
2023/04/26 12:07:05;;;;;;;0.65;0.43;;;;;;;10.13;44.13;101169.56;15399658;28;20079;-72
2023/04/26 12:14:40;;;;;;;1.23;0.70;;;;;;;10.47;42.30;101164.19;15367383;28;20385;-71
2023/04/26 12:22:20;;;;;;;1.27;0.20;;;;;;;10.28;42.75;101178.34;15401106;28;20051;-72
2023/04/26 12:29:53;;;;;;;0.10;0.10;;;;;;;9.27;44.27;101180.38;15405416;28;20059;-71
2023/04/26 12:37:28;;;;;;;1.33;0.82;;;;;;;9.56;44.50;101184.81;15417917;28;20117;-71
2023/04/26 12:45:01;;;;;;;1.67;0.35;;;;;;;10.34;42.62;101174.03;15406520;28;20523;-71
2023/04/26 12:52:35;;;;;;;0.98;0.50;;;;;;;10.54;40.46;101177.66;15396218;28;20069;-72
2023/04/26 13:00:11;;;;;;;4.03;0.55;;;;;;;9.83;41.79;101176.97;15423179;28;20070;-71
2023/04/26 13:07:46;;;;;;;0.93;0.43;;;;;;;10.75;42.19;101176.72;15390421;28;20043;-72
2023/04/26 13:15:20;;;;;;;0.70;0.50;;;;;;;9.80;43.11;101180.06;15385900;28;20050;-72
2023/04/26 13:22:54;;;;;;;1.25;0.77;;;;;;;12.23;37.72;101174.81;15391580;28;20503;-72
2023/04/26 13:30:27;;;;;;;10.98;0.75;;;;;;;12.77;36.83;101123.22;15403856;28;20066;-72
2023/04/26 13:38:02;;;;;;;2.85;0.77;;;;;;;11.77;37.24;101164.91;15387095;28;20039;-72
2023/04/26 13:45:35;;;;;;;0.85;0.38;;;;;;;10.85;37.82;101176.34;15373181;28;20054;-72
2023/04/26 13:53:09;;;;;;;0.22;0.17;;;;;;;10.11;40.07;101180.47;15389070;28;20065;-71
2023/04/26 14:00:42;;;;;;;0.82;0.40;;;;;;;10.22;40.26;101193.34;15405123;28;20055;-69
2023/04/26 14:08:17;;;;;;;1.70;0.85;;;;;;;9.77;41.38;101201.88;15400161;28;20070;-72
2023/04/26 14:15:50;;;;;;;0.85;0.40;;;;;;;10.26;41.13;101199.19;15417049;28;20045;-71
2023/04/26 14:23:24;;;;;;;2.75;0.90;;;;;;;10.27;40.67;101191.97;15424619;28;20522;-70
2023/04/26 14:30:59;;;;;;;0.50;0.30;;;;;;;11.12;41.02;101199.56;15402678;28;20145;-70
2023/04/26 14:38:35;;;;;;;3.38;0.85;;;;;;;11.77;38.78;101186.41;15390537;28;20050;-71
2023/04/26 14:46:08;;;;;;;0.90;0.50;;;;;;;11.50;39.08;101194.47;15407039;28;20047;-72
2023/04/26 14:53:43;;;;;;;0.70;0.32;;;;;;;10.96;37.33;101203.47;15410730;28;20077;-71
2023/04/26 15:01:16;;;;;;;1.25;0.63;;;;;;;10.66;39.92;101191.34;15387301;28;20053;-71
2023/04/26 15:08:50;;;;;;;2.20;0.90;;;;;;;11.32;39.15;101188.03;15388147;28;20047;-71
2023/04/26 15:16:23;;;;;;;7.57;0.80;;;;;;;10.90;37.47;101192.66;15408815;28;20047;-71
2023/04/26 15:23:58;;;;;;;1.15;0.68;;;;;;;11.01;38.63;101188.59;15410235;28;20047;-71
2023/04/26 15:31:31;;;;;;;1.90;0.88;;;;;;;10.64;39.59;101194.22;15390656;28;20047;-71
2023/04/26 15:39:07;;;;;;;0.57;0.35;;;;;;;10.24;40.63;101193.19;15388462;28;20043;-71
2023/04/26 15:46:40;;;;;;;0.40;0.40;;;;;;;10.48;40.64;101197.22;15339754;28;20439;-71
2023/04/26 15:54:14;;;;;;;1.83;0.82;;;;;;;10.36;40.18;101193.47;15415321;28;20282;-70
2023/04/26 16:01:47;;;;;;;0.20;0.20;;;;;;;10.74;38.92;101185.81;15403847;28;20082;-70
2023/04/26 16:09:22;;;;;;;0.80;0.23;;;;;;;10.75;39.63;101198.19;15402308;28;20043;-72
2023/04/26 16:16:55;;;;;;;1.80;0.98;;;;;;;10.45;39.62;101197.66;15514127;23;20312;-54
2023/04/26 16:24:30;;;;;;;0.60;0.40;;;;;;;10.56;40.10;101202.44;15555699;28;20053;-52
2023/04/26 16:32:04;;;;;;;0.75;0.50;;;;;;;10.47;40.26;101183.00;15623656;28;20049;-48
2023/04/26 16:39:38;;;;;;;0.45;0.30;;;;;;;10.15;40.71;101195.16;15587106;28;20069;-47
2023/04/26 16:47:12;;;;;;;0.82;0.40;;;;;;;9.66;42.14;101196.03;15623580;28;20053;-48
2023/04/26 16:54:47;;;;;;;1.10;0.40;;;;;;;10.18;41.76;101199.31;15618897;28;20107;-50
2023/04/26 17:02:20;;;;;;;0.50;0.47;;;;;;;9.74;42.98;101210.28;15619435;28;20045;-49
2023/04/26 17:09:54;;;;;;;2.08;0.52;;;;;;;9.44;42.71;101203.22;15601458;28;20072;-50
2023/04/26 17:17:27;;;;;;;0.68;0.28;;;;;;;9.46;44.30;101221.78;15617838;28;20041;-48
2023/04/26 17:25:03;;;;;;;0.63;0.40;;;;;;;9.22;43.34;101220.31;15616404;28;20103;-48
2023/04/26 17:32:36;;;;;;;1.40;0.52;;;;;;;9.27;43.75;101223.25;15616771;28;20046;-47
2023/04/26 17:40:11;;;;;;;4.00;1.85;;;;;;;9.40;43.74;101226.06;15616045;28;20085;-50
2023/04/26 17:47:44;;;;;;;0.15;0.08;;;;;;;9.19;44.12;101236.78;15619899;28;20052;-52
2023/04/26 17:55:21;;;;;;;0.63;0.57;;;;;;;9.20;44.68;101236.56;15624883;28;20405;-49
2023/04/26 18:02:54;;;;;;;0.30;0.30;;;;;;;9.02;44.70;101246.03;15600069;28;20041;-48
2023/04/26 18:10:29;;;;;;;0.52;0.35;;;;;;;9.20;45.06;101247.28;15607004;28;20045;-51
2023/04/26 18:18:04;;;;;;;1.25;0.32;;;;;;;8.76;46.77;101252.69;15620493;28;20140;-47
2023/04/26 18:25:38;;;;;;;0.90;0.38;;;;;;;9.26;46.18;101258.25;15617108;28;20045;-47
2023/04/26 18:33:11;;;;;;;0.75;0.43;;;;;;;9.05;47.01;101265.25;15614948;28;20053;-47
2023/04/26 18:40:48;;;;;;;1.58;0.57;;;;;;;8.65;49.08;101279.94;15614343;28;20083;-47
2023/04/26 18:48:21;;;;;;;0.65;0.40;;;;;;;8.50;49.66;101285.28;15595814;28;20046;-48
2023/04/26 18:55:57;;;;;;;7.47;0.45;;;;;;;8.58;50.04;101281.69;15596260;28;20091;-48
2023/04/26 19:03:30;;;;;;;0.88;0.60;;;;;;;8.60;50.27;101287.69;15581706;28;20133;-49
2023/04/26 19:11:04;;;;;;;3.53;1.40;;;;;;;8.80;49.41;101298.66;15596563;28;20046;-48
2023/04/26 19:18:39;;;;;;;0.57;0.55;;;;;;;8.38;50.95;101298.25;15578576;28;20258;-47
2023/04/26 19:26:14;;;;;;;1.70;0.70;;;;;;;8.49;51.23;101299.69;15614508;28;20075;-47
2023/04/26 19:33:47;;;;;;;1.05;0.63;;;;;;;8.05;52.34;101305.72;15603525;28;20383;-48
2023/04/26 19:41:22;;;;;;;1.07;0.40;;;;;;;8.49;51.66;101299.69;15605499;28;20049;-50
2023/04/26 19:48:55;;;;;;;0.82;0.40;;;;;;;8.62;51.56;101307.88;15622784;28;20103;-47
2023/04/26 19:56:30;;;;;;;1.73;0.98;;;;;;;8.61;51.77;101305.41;15605206;28;20068;-51
2023/04/26 20:04:03;;;;;;;0.82;0.57;;;;;;;8.46;51.47;101307.25;15621977;28;20100;-47
2023/04/26 20:11:37;;;;;;;0.82;0.80;;;;;;;8.60;51.51;101312.59;15621149;28;20084;-48
2023/04/26 20:19:10;;;;;;;3.05;1.17;;;;;;;8.55;51.99;101317.69;15619979;28;20067;-49
2023/04/26 20:26:45;;;;;;;1.77;1.13;;;;;;;8.33;52.97;101322.03;15586386;28;20121;-49
2023/04/26 20:34:18;;;;;;;1.98;1.10;;;;;;;8.58;52.71;101332.50;15602724;28;20041;-49
2023/04/26 20:41:53;;;;;;;1.80;0.45;;;;;;;8.25;53.66;101329.28;15618371;28;20132;-49
2023/04/26 20:49:27;;;;;;;0.55;0.30;;;;;;;8.30;53.83;101327.75;15618818;28;20045;-48
2023/04/26 20:57:02;;;;;;;8.48;0.50;;;;;;;8.43;53.30;101330.66;15600354;28;20104;-48
2023/04/26 21:04:37;;;;;;;2.97;0.55;;;;;;;7.91;53.59;101333.22;15600076;28;20144;-48
2023/04/26 21:12:11;;;;;;;1.25;0.90;;;;;;;7.79;53.95;101337.34;15618486;28;20461;-50
2023/04/26 21:19:44;;;;;;;1.15;0.52;;;;;;;7.84;53.60;101329.63;15616527;28;20539;-48
2023/04/26 21:27:18;;;;;;;0.87;0.63;;;;;;;7.78;54.86;101332.97;15535127;28;20391;-50
2023/04/26 21:34:51;;;;;;;0.40;0.38;;;;;;;8.26;52.65;101336.31;15596862;28;20536;-48
2023/04/26 21:42:26;;;;;;;0.52;0.52;;;;;;;8.06;54.11;101341.31;15614039;28;20418;-50
2023/04/26 21:49:59;;;;;;;0.80;0.55;;;;;;;7.79;54.15;101350.72;15611694;28;20042;-48
2023/04/26 21:57:34;;;;;;;7.18;0.68;;;;;;;7.77;53.33;101348.19;15594834;28;20136;-49
2023/04/26 22:05:07;;;;;;;4.20;0.55;;;;;;;8.04;52.54;101348.69;15611410;28;20045;-50
2023/04/26 22:12:42;;;;;;;0.00;0.00;;;;;;;8.11;52.38;101360.31;15608531;28;20475;-49
2023/04/26 22:20:15;;;;;;;4.65;0.43;;;;;;;8.03;52.67;101371.09;15609733;28;20103;-48
2023/04/26 22:27:49;;;;;;;1.10;0.55;;;;;;;8.21;51.95;101368.09;15587350;28;20045;-50
2023/04/26 22:35:23;;;;;;;1.02;0.65;;;;;;;7.72;53.37;101379.13;15589027;28;20053;-51
2023/04/26 22:42:58;;;;;;;;;;;;;;;7.84;52.52;101386.56;15610418;28;20056;-50
2023/04/26 22:50:31;;;;;;;0.75;0.38;;;;;;;7.93;52.31;101396.22;15611248;28;19921;-50
2023/04/26 22:58:05;;;;;;;1.87;0.50;;;;;;;7.62;52.92;101376.69;15608385;28;20521;-51
2023/04/26 23:05:38;;;;;;;0.43;0.38;;;;;;;7.78;52.78;101397.13;15616753;28;20046;-51
2023/04/26 23:13:13;;;;;;;1.30;0.47;;;;;;;7.98;52.41;101395.69;15605624;28;20041;-54
2023/04/26 23:20:46;;;;;;;0.28;0.10;;;;;;;7.59;53.59;101391.22;15624832;28;20055;-50
2023/04/26 23:28:20;;;;;;;10.03;0.20;;;;;;;7.58;53.59;101397.56;15622900;28;20482;-50
2023/04/26 23:35:54;;;;;;;0.32;0.32;;;;;;;7.61;53.81;101401.75;15623270;28;20665;-51
2023/04/26 23:43:29;;;;;;;0.17;0.15;;;;;;;7.96;53.03;101396.84;15623791;28;20056;-48
2023/04/26 23:51:02;;;;;;;0.57;0.20;;;;;;;7.88;52.86;101397.72;15618558;28;20445;-49
2023/04/26 23:58:36;;;;;;;0.67;0.47;;;;;;;7.96;52.59;101395.00;15618943;28;20418;-50
